createdAt,value
2022-12-23T00:01:22.333Z,69.68
2022-12-23T00:03:49.116Z,69.61
2022-12-23T00:06:18.269Z,69.13
2022-12-23T00:08:45.280Z,69.02
2022-12-23T00:11:13.543Z,69.06
2022-12-23T00:13:40.116Z,69.12
2022-12-23T00:16:08.560Z,69.66
2022-12-23T00:18:35.912Z,69.81
2022-12-23T00:21:08.567Z,69.80
2022-12-23T00:23:39.026Z,69.72
2022-12-23T00:26:06.197Z,69.61
2022-12-23T00:28:33.192Z,69.47
2022-12-23T00:31:02.627Z,69.28
2022-12-23T00:33:31.551Z,69.39
2022-12-23T00:35:58.438Z,69.35
2022-12-23T00:38:25.671Z,70.74
2022-12-23T00:40:53.448Z,70.22
2022-12-23T00:43:20.056Z,70.14
2022-12-23T00:45:46.622Z,70.33
2022-12-23T00:48:13.433Z,70.03
2022-12-23T00:50:40.840Z,70.04
2022-12-23T00:53:07.557Z,70.15
2022-12-23T00:55:34.074Z,70.00
2022-12-23T00:58:01.890Z,70.78
2022-12-23T01:00:29.053Z,70.37
2022-12-23T01:02:55.630Z,70.25
2022-12-23T01:05:22.383Z,70.36
2022-12-23T01:07:48.955Z,70.91
2022-12-23T01:10:15.474Z,70.60
2022-12-23T01:12:42.047Z,71.62
2022-12-23T01:15:10.660Z,71.41
2022-12-23T01:17:37.404Z,70.98
2022-12-23T01:20:04.671Z,71.47
2022-12-23T01:22:31.164Z,70.91
2022-12-23T01:24:57.711Z,70.49
2022-12-23T01:27:24.194Z,70.74
2022-12-23T01:29:50.702Z,70.65
2022-12-23T01:32:18.713Z,70.96
2022-12-23T01:34:45.275Z,71.13
2022-12-23T01:37:11.782Z,71.09
2022-12-23T01:39:38.414Z,71.12
2022-12-23T01:42:09.712Z,71.89
2022-12-23T01:44:54.904Z,71.50
2022-12-23T01:47:31.874Z,71.19
2022-12-23T01:50:04.987Z,71.19
2022-12-23T01:52:34.893Z,70.92
2022-12-23T01:55:01.517Z,70.96
2022-12-23T01:57:28.956Z,70.44
2022-12-23T01:59:55.566Z,70.89
2022-12-23T02:02:22.265Z,70.48
2022-12-23T02:04:51.351Z,70.91
2022-12-23T02:07:18.866Z,71.83
2022-12-23T02:09:45.345Z,71.33
2022-12-23T02:12:36.211Z,71.09
2022-12-23T02:15:14.492Z,71.41
2022-12-23T02:17:52.217Z,71.57
2022-12-23T02:20:59.059Z,71.27
2022-12-23T02:23:52.359Z,71.08
2022-12-23T02:26:42.519Z,71.21
2022-12-23T02:29:42.392Z,72.18
2022-12-23T02:32:15.776Z,71.10
2022-12-23T02:34:52.344Z,71.26
2022-12-23T02:37:24.078Z,71.00
2022-12-23T02:39:55.725Z,71.16
2022-12-23T02:42:25.960Z,71.18
2022-12-23T02:44:59.418Z,71.12
2022-12-23T02:47:31.791Z,71.63
2022-12-23T02:50:03.601Z,70.98
2022-12-23T02:52:34.436Z,70.92
2022-12-23T02:55:06.578Z,71.90
2022-12-23T02:57:37.036Z,71.24
2022-12-23T03:00:06.339Z,70.95
2022-12-23T03:02:36.809Z,71.47
2022-12-23T03:05:04.114Z,71.73
2022-12-23T03:07:33.389Z,70.79
2022-12-23T03:10:08.366Z,71.86
2022-12-23T03:12:46.355Z,71.33
2022-12-23T03:15:21.586Z,71.70
2022-12-23T03:17:59.138Z,70.90
2022-12-23T03:20:34.606Z,71.47
2022-12-23T03:23:08.012Z,71.17
2022-12-23T03:25:40.530Z,71.41
2022-12-23T03:28:11.616Z,71.51
2022-12-23T03:30:43.125Z,70.87
2022-12-23T03:33:17.062Z,70.69
2022-12-23T03:35:48.939Z,70.78
2022-12-23T03:38:18.446Z,71.25
2022-12-23T03:40:49.224Z,70.93
2022-12-23T03:43:20.880Z,71.10
2022-12-23T03:45:52.409Z,70.76
2022-12-23T03:48:25.115Z,70.79
2022-12-23T03:50:56.564Z,71.01
2022-12-23T03:53:27.572Z,70.66
2022-12-23T03:55:56.665Z,70.71
2022-12-23T03:58:35.053Z,70.95
2022-12-23T04:01:10.183Z,71.64
2022-12-23T04:03:47.156Z,71.22
2022-12-23T04:06:17.717Z,71.38
2022-12-23T04:08:48.323Z,71.26
2022-12-23T04:11:14.979Z,71.64
2022-12-23T04:13:41.551Z,71.33
2022-12-23T04:16:08.307Z,71.65
2022-12-23T04:18:35.017Z,71.25
2022-12-23T04:21:03.112Z,71.65
2022-12-23T04:23:29.584Z,71.97
2022-12-23T04:25:56.115Z,71.72
2022-12-23T04:28:22.545Z,71.43
2022-12-23T04:30:49.049Z,71.57
2022-12-23T04:33:15.573Z,70.71
2022-12-23T04:35:42.103Z,71.21
2022-12-23T04:38:09.940Z,71.27
2022-12-23T04:40:36.540Z,71.72
2022-12-23T04:43:03.045Z,72.83
2022-12-23T04:45:29.644Z,71.94
2022-12-23T04:47:56.107Z,71.97
2022-12-23T04:50:22.752Z,72.14
2022-12-23T04:52:49.343Z,71.66
2022-12-23T04:55:17.218Z,71.47
2022-12-23T04:57:43.682Z,71.76
2022-12-23T05:00:11.278Z,71.65
2022-12-23T05:02:37.930Z,70.79
2022-12-23T05:05:05.117Z,71.45
2022-12-23T05:07:31.797Z,71.55
2022-12-23T05:09:58.296Z,71.15
2022-12-23T05:12:26.131Z,71.70
2022-12-23T05:14:52.867Z,71.02
2022-12-23T05:17:19.358Z,70.61
2022-12-23T05:19:45.954Z,70.52
2022-12-23T05:22:12.513Z,71.21
2022-12-23T05:24:38.969Z,71.12
2022-12-23T05:27:05.583Z,70.55
2022-12-23T05:29:33.420Z,70.41
2022-12-23T05:31:59.946Z,70.66
2022-12-23T05:34:26.615Z,71.13
2022-12-23T05:36:53.109Z,70.57
2022-12-23T05:39:19.574Z,70.77
2022-12-23T05:41:46.125Z,71.90
2022-12-23T05:44:12.633Z,70.66
2022-12-23T05:46:40.543Z,70.48
2022-12-23T05:49:07.031Z,70.44
2022-12-23T05:51:33.671Z,70.20
2022-12-23T05:54:00.191Z,70.03
2022-12-23T05:56:26.747Z,69.91
2022-12-23T05:58:53.489Z,69.73
2022-12-23T06:01:20.007Z,70.26
2022-12-23T06:03:48.141Z,70.20
2022-12-23T06:06:14.773Z,70.03
2022-12-23T06:08:41.282Z,69.91
2022-12-23T06:11:07.947Z,69.41
2022-12-23T06:13:34.506Z,69.71
2022-12-23T06:16:01.134Z,70.01
2022-12-23T06:18:27.644Z,70.22
2022-12-23T06:21:00.180Z,70.06
2022-12-23T06:23:26.657Z,69.84
2022-12-23T06:25:58.812Z,69.99
2022-12-23T06:28:25.555Z,70.12
2022-12-23T06:30:52.795Z,70.34
2022-12-23T06:33:19.267Z,70.13
2022-12-23T06:35:45.777Z,70.46
2022-12-23T06:38:13.795Z,70.03
2022-12-23T06:40:40.470Z,70.34
2022-12-23T06:43:07.043Z,70.23
2022-12-23T06:45:33.523Z,70.38
2022-12-23T06:48:00.012Z,70.06
2022-12-23T06:50:26.546Z,69.50
2022-12-23T06:52:53.033Z,69.70
2022-12-23T06:55:20.886Z,69.40
2022-12-23T06:57:49.128Z,69.43
2022-12-23T07:00:16.632Z,69.35
2022-12-23T07:02:43.252Z,69.48
2022-12-23T07:05:09.776Z,69.03
2022-12-23T07:07:36.412Z,69.62
2022-12-23T07:10:03.274Z,69.62
2022-12-23T07:12:31.075Z,69.24
2022-12-23T07:14:57.644Z,69.49
2022-12-23T07:17:24.130Z,68.91
2022-12-23T07:19:50.963Z,69.16
2022-12-23T07:22:17.460Z,69.95
2022-12-23T07:24:43.979Z,70.08
2022-12-23T07:27:10.754Z,69.43
2022-12-23T07:29:38.556Z,70.07
2022-12-23T07:32:05.404Z,70.07
2022-12-23T07:34:32.041Z,70.19
2022-12-23T07:36:58.533Z,69.19
2022-12-23T07:39:25.089Z,69.30
2022-12-23T07:42:08.894Z,69.48
2022-12-23T07:44:39.376Z,69.19
2022-12-23T07:47:05.861Z,69.29
2022-12-23T07:49:32.417Z,69.22
2022-12-23T07:51:58.930Z,68.99
2022-12-23T07:54:25.396Z,68.83
2022-12-23T07:56:51.922Z,68.72
2022-12-23T07:59:18.423Z,68.64
2022-12-23T08:01:46.427Z,69.14
2022-12-23T08:04:13.020Z,68.68
2022-12-23T08:06:39.551Z,68.69
2022-12-23T08:09:06.043Z,69.20
2022-12-23T08:11:32.528Z,68.50
2022-12-23T08:13:59.075Z,69.04
2022-12-23T08:16:25.686Z,68.71
2022-12-23T08:18:53.650Z,68.48
2022-12-23T08:21:20.220Z,68.21
2022-12-23T08:23:47.582Z,68.50
2022-12-23T08:26:16.942Z,67.95
2022-12-23T08:28:44.253Z,68.09
2022-12-23T08:31:12.980Z,68.25
2022-12-23T08:33:41.884Z,67.96
2022-12-23T08:36:19.092Z,67.78
2022-12-23T08:38:49.399Z,67.64
2022-12-23T08:41:18.679Z,67.89
2022-12-23T08:43:45.365Z,67.80
2022-12-23T08:46:12.117Z,67.70
2022-12-23T08:48:42.501Z,67.30
2022-12-23T08:51:15.061Z,67.44
2022-12-23T08:53:41.523Z,67.63
2022-12-23T08:56:10.610Z,67.41
2022-12-23T08:58:38.060Z,67.19
2022-12-23T09:01:05.941Z,66.95
2022-12-23T09:03:39.666Z,67.36
2022-12-23T09:06:07.725Z,67.52
2022-12-23T09:08:35.978Z,67.16
2022-12-23T09:11:03.526Z,66.90
2022-12-23T09:13:48.100Z,66.89
2022-12-23T09:16:15.358Z,67.59
2022-12-23T09:18:43.272Z,68.10
2022-12-23T09:21:26.767Z,67.79
2022-12-23T09:23:54.999Z,67.68
2022-12-23T09:26:24.563Z,67.56
2022-12-23T09:28:53.426Z,67.11
2022-12-23T09:31:25.218Z,66.84
2022-12-23T09:33:53.881Z,67.20
2022-12-23T09:36:21.267Z,66.93
2022-12-23T09:38:48.207Z,66.78
2022-12-23T09:41:33.419Z,66.72
2022-12-23T09:44:14.967Z,67.33
2022-12-23T09:46:47.625Z,66.83
2022-12-23T09:49:17.490Z,66.91
2022-12-23T09:51:45.641Z,66.74
2022-12-23T09:54:17.917Z,66.91
2022-12-23T09:56:51.178Z,66.54
2022-12-23T09:59:29.110Z,66.40
2022-12-23T10:02:00.767Z,66.97
2022-12-23T10:04:46.857Z,67.25
2022-12-23T10:07:22.707Z,67.64
2022-12-23T10:09:51.218Z,67.48
2022-12-23T10:12:31.641Z,67.69
2022-12-23T10:15:04.230Z,67.62
2022-12-23T10:17:38.821Z,68.27
2022-12-23T10:20:16.701Z,67.96
2022-12-23T10:22:44.905Z,67.91
2022-12-23T10:25:16.917Z,67.30
2022-12-23T10:27:44.876Z,67.67
2022-12-23T10:30:42.606Z,67.35
2022-12-23T10:33:09.721Z,67.87
2022-12-23T10:35:44.180Z,68.02
2022-12-23T10:38:29.004Z,68.10
2022-12-23T10:41:07.120Z,67.19
2022-12-23T10:43:47.143Z,66.89
2022-12-23T10:46:19.658Z,66.77
2022-12-23T10:48:59.940Z,67.09
2022-12-23T10:51:32.129Z,67.08
2022-12-23T10:54:02.107Z,67.04
2022-12-23T10:56:29.394Z,66.18
2022-12-23T10:58:59.816Z,65.92
2022-12-23T11:01:27.844Z,65.25
2022-12-23T11:04:03.168Z,65.92
2022-12-23T11:06:37.263Z,65.95
2022-12-23T11:09:05.875Z,66.89
2022-12-23T11:11:58.217Z,66.93
2022-12-23T11:14:38.542Z,67.41
2022-12-23T11:17:14.403Z,66.97
2022-12-23T11:19:41.133Z,66.67
2022-12-23T11:22:21.762Z,66.98
2022-12-23T11:24:48.421Z,67.42
2022-12-23T11:27:15.602Z,67.38
2022-12-23T11:29:48.461Z,67.19
2022-12-23T11:32:18.605Z,66.97
2022-12-23T11:34:47.260Z,67.22
2022-12-23T11:37:27.210Z,66.91
2022-12-23T11:39:53.937Z,67.06
2022-12-23T11:42:27.100Z,66.20
2022-12-23T11:44:58.620Z,65.78
2022-12-23T11:47:27.886Z,65.50
2022-12-23T11:49:55.823Z,64.46
2022-12-23T11:52:24.198Z,64.41
2022-12-23T11:54:54.543Z,63.92
2022-12-23T11:57:24.664Z,63.86
2022-12-23T11:59:59.939Z,63.79
2022-12-23T12:02:34.429Z,64.61
2022-12-23T12:05:04.873Z,64.95
2022-12-23T12:07:33.208Z,64.82
2022-12-23T12:10:01.457Z,65.15
2022-12-23T12:12:29.508Z,65.74
2022-12-23T12:14:58.747Z,66.07
2022-12-23T12:17:32.509Z,66.19
2022-12-23T12:20:03.513Z,66.81
2022-12-23T12:22:36.163Z,66.32
2022-12-23T12:25:17.444Z,66.58
2022-12-23T12:27:50.173Z,67.00
2022-12-23T12:30:20.139Z,66.76
2022-12-23T12:32:54.979Z,66.88
2022-12-23T12:35:27.005Z,66.71
2022-12-23T12:37:59.403Z,67.79
2022-12-23T12:40:32.337Z,68.03
2022-12-23T12:43:05.284Z,68.34
2022-12-23T12:45:40.336Z,68.99
2022-12-23T12:48:23.754Z,68.72
2022-12-23T12:50:57.947Z,68.24
2022-12-23T12:53:24.950Z,68.88
2022-12-23T12:55:56.936Z,68.63
2022-12-23T12:58:24.311Z,68.80
2022-12-23T13:01:06.795Z,69.10
2022-12-23T13:03:56.159Z,68.51
2022-12-23T13:06:31.154Z,68.83
2022-12-23T13:09:08.987Z,68.66
2022-12-23T13:11:40.753Z,68.61
2022-12-23T13:14:19.103Z,68.54
2022-12-23T13:16:56.192Z,68.58
2022-12-23T13:19:28.966Z,69.26
2022-12-23T13:22:02.164Z,69.39
2022-12-23T13:24:35.409Z,69.51
2022-12-23T13:27:07.474Z,68.82
2022-12-23T13:29:44.871Z,69.32
2022-12-23T13:32:31.905Z,69.72
2022-12-23T13:35:04.220Z,69.95
2022-12-23T13:37:41.259Z,69.96
2022-12-23T13:40:22.439Z,69.85
2022-12-23T13:42:54.533Z,69.66
2022-12-23T13:45:24.769Z,69.36
2022-12-23T13:48:07.289Z,69.31
2022-12-23T13:50:38.640Z,69.40
2022-12-23T13:53:21.957Z,68.94
2022-12-23T13:55:59.152Z,69.54
2022-12-23T13:58:28.411Z,69.80
2022-12-23T14:01:18.753Z,69.47
2022-12-23T14:03:48.707Z,69.56
2022-12-23T14:06:21.531Z,69.74
2022-12-23T14:08:48.571Z,70.33
2022-12-23T14:11:18.986Z,70.39
2022-12-23T14:13:55.144Z,70.45
2022-12-23T14:16:48.743Z,70.36
2022-12-23T14:19:50.693Z,70.96
2022-12-23T14:22:32.910Z,70.28
2022-12-23T14:25:33.061Z,70.68
2022-12-23T14:28:07.700Z,69.92
2022-12-23T14:30:36.218Z,70.54
2022-12-23T14:33:04.398Z,70.42
2022-12-23T14:35:57.279Z,70.20
2022-12-23T14:38:29.922Z,70.71
2022-12-23T14:41:22.704Z,71.33
2022-12-23T14:43:55.212Z,71.38
2022-12-23T14:46:55.301Z,71.74
2022-12-23T14:49:40.402Z,72.01
2022-12-23T14:52:45.760Z,72.54
2022-12-23T14:55:47.044Z,73.48
2022-12-23T14:58:34.439Z,72.52
2022-12-23T15:01:03.810Z,72.91
2022-12-23T15:03:34.576Z,71.93
2022-12-23T15:06:05.701Z,72.33
2022-12-23T15:08:37.479Z,72.00
2022-12-23T15:11:05.372Z,72.43
2022-12-23T15:13:32.971Z,72.54
2022-12-23T15:16:01.954Z,72.22
2022-12-23T15:18:29.297Z,72.57
2022-12-23T15:21:01.535Z,72.77
2022-12-23T15:23:28.035Z,72.66
2022-12-23T15:25:57.884Z,72.95
2022-12-23T15:28:34.937Z,72.61
2022-12-23T15:31:04.472Z,72.80
2022-12-23T15:36:26.303Z,73.83
2022-12-23T15:38:52.990Z,72.98
2022-12-23T15:41:20.802Z,74.52
2022-12-23T15:43:47.366Z,73.10
2022-12-23T15:46:17.257Z,73.09
2022-12-23T15:48:47.227Z,73.02
2022-12-23T15:51:36.634Z,73.50
2022-12-23T15:54:07.057Z,73.92
2022-12-23T15:56:38.782Z,73.39
2022-12-23T15:59:06.283Z,74.04
2022-12-23T16:01:39.064Z,73.37
2022-12-23T16:07:24.554Z,73.15
2022-12-23T16:09:54.351Z,73.07
2022-12-23T16:12:24.086Z,73.94
2022-12-23T16:14:53.829Z,73.75
2022-12-23T16:17:24.678Z,73.28
2022-12-23T16:19:52.953Z,72.67
2022-12-23T16:22:26.084Z,72.58
2022-12-23T16:24:58.982Z,72.69
2022-12-23T16:27:34.412Z,72.62
2022-12-23T16:30:04.347Z,72.80
2022-12-23T16:32:31.052Z,73.02
2022-12-23T16:35:09.854Z,73.14
2022-12-23T16:37:36.315Z,74.37
2022-12-23T16:40:12.780Z,74.82
2022-12-23T16:42:43.600Z,73.93
2022-12-23T16:45:12.941Z,73.68
2022-12-23T16:47:41.443Z,73.60
2022-12-23T16:50:14.341Z,73.27
2022-12-23T16:52:40.867Z,72.99
2022-12-23T16:55:15.933Z,73.38
2022-12-23T16:57:44.559Z,72.56
2022-12-23T17:00:14.610Z,72.91
2022-12-23T17:02:41.497Z,73.35
2022-12-23T17:05:14.345Z,72.96
2022-12-23T17:07:45.263Z,72.67
2022-12-23T17:10:13.970Z,72.91
2022-12-23T17:12:41.517Z,73.49
2022-12-23T17:15:16.340Z,73.05
2022-12-23T17:17:42.926Z,72.67
2022-12-23T17:20:09.984Z,72.91
2022-12-23T17:22:37.408Z,72.14
2022-12-23T17:25:05.897Z,72.80
2022-12-23T17:27:32.385Z,71.77
2022-12-23T17:29:58.911Z,71.83
2022-12-23T17:32:27.331Z,71.74
2022-12-23T17:34:56.340Z,72.17
2022-12-23T17:37:23.151Z,71.84
2022-12-23T17:39:51.711Z,72.48
2022-12-23T17:42:25.545Z,71.48
2022-12-23T17:44:52.747Z,71.24
2022-12-23T17:47:21.312Z,71.36
2022-12-23T17:49:49.702Z,72.31
2022-12-23T17:52:18.432Z,72.05
2022-12-23T17:54:46.296Z,71.26
2022-12-23T17:57:20.122Z,70.88
2022-12-23T17:59:48.032Z,70.56
2022-12-23T18:02:55.218Z,70.27
2022-12-23T18:05:25.746Z,70.26
2022-12-23T18:07:53.753Z,71.30
2022-12-23T18:10:23.461Z,70.74
2022-12-23T18:12:53.351Z,70.37
2022-12-23T18:15:24.425Z,70.44
2022-12-23T18:17:52.282Z,69.98
2022-12-23T18:20:21.292Z,68.71
2022-12-23T18:22:51.558Z,69.02
2022-12-23T18:25:21.402Z,69.55
2022-12-23T18:27:48.581Z,69.17
2022-12-23T18:30:15.375Z,68.41
2022-12-23T18:32:42.700Z,69.19
2022-12-23T18:35:26.814Z,68.87
2022-12-23T18:37:55.532Z,68.31
2022-12-23T18:40:25.703Z,67.63
2022-12-23T18:42:56.550Z,68.05
2022-12-23T18:45:33.109Z,67.44
2022-12-23T18:48:04.269Z,67.03
2022-12-23T18:50:31.867Z,67.12
2022-12-23T18:52:59.937Z,67.58
2022-12-23T18:55:27.334Z,67.58
2022-12-23T18:57:54.254Z,66.89
2022-12-23T19:00:23.430Z,66.75
2022-12-23T19:02:51.435Z,67.30
2022-12-23T19:05:20.563Z,67.06
2022-12-23T19:07:48.079Z,67.13
2022-12-23T19:10:18.663Z,66.33
2022-12-23T19:12:45.391Z,67.38
2022-12-23T19:15:15.659Z,67.22
2022-12-23T19:17:42.213Z,66.85
2022-12-23T19:20:11.361Z,67.57
2022-12-23T19:22:38.334Z,67.57
2022-12-23T19:25:06.881Z,67.19
2022-12-23T19:27:34.915Z,67.49
2022-12-23T19:30:01.689Z,67.29
2022-12-23T19:32:28.207Z,67.90
2022-12-23T19:34:54.664Z,66.99
2022-12-23T19:37:21.166Z,67.30
2022-12-23T19:39:47.736Z,67.00
2022-12-23T19:42:14.306Z,66.78
2022-12-23T19:44:42.239Z,66.93
2022-12-23T19:47:08.820Z,66.07
2022-12-23T19:49:35.385Z,65.92
2022-12-23T19:52:02.589Z,66.66
2022-12-23T19:54:29.152Z,66.79
2022-12-23T19:56:55.867Z,66.98
2022-12-23T19:59:22.404Z,66.72
2022-12-23T20:01:50.386Z,66.47
2022-12-23T20:04:17.433Z,66.88
2022-12-23T20:06:44.409Z,66.62
2022-12-23T20:09:12.878Z,66.53
2022-12-23T20:11:40.804Z,66.41
2022-12-23T20:14:08.192Z,65.69
2022-12-23T20:16:35.699Z,66.82
2022-12-23T20:19:04.325Z,66.98
2022-12-23T20:21:31.016Z,66.51
2022-12-23T20:23:57.858Z,66.18
2022-12-23T20:26:24.335Z,66.49
2022-12-23T20:28:51.522Z,66.60
2022-12-23T20:31:20.325Z,66.46
2022-12-23T20:33:47.485Z,66.21
2022-12-23T20:36:18.034Z,66.77
2022-12-23T20:38:46.535Z,66.99
2022-12-23T20:41:15.637Z,66.23
2022-12-23T20:43:46.060Z,67.27
2022-12-23T20:46:19.531Z,67.18
2022-12-23T20:48:46.832Z,68.00
2022-12-23T20:51:16.686Z,67.19
2022-12-23T20:53:43.668Z,68.54
2022-12-23T20:56:12.618Z,67.56
2022-12-23T20:58:39.269Z,68.07
2022-12-23T21:01:09.478Z,67.86
2022-12-23T21:03:36.041Z,67.88
2022-12-23T21:06:02.759Z,67.94
2022-12-23T21:08:30.589Z,67.33
2022-12-23T21:10:57.523Z,68.27
2022-12-23T21:13:24.184Z,68.20
2022-12-23T21:15:50.959Z,67.95
2022-12-23T21:18:17.525Z,67.54
2022-12-23T21:20:44.079Z,67.50
2022-12-23T21:23:10.521Z,67.66
2022-12-23T21:25:38.420Z,67.32
2022-12-23T21:28:04.928Z,67.28
2022-12-23T21:30:31.518Z,66.69
2022-12-23T21:32:58.085Z,67.33
2022-12-23T21:35:24.607Z,66.61
2022-12-23T21:37:51.087Z,67.22
2022-12-23T21:40:17.731Z,67.45
2022-12-23T21:42:45.607Z,68.08
2022-12-23T21:45:12.099Z,66.75
2022-12-23T21:47:38.648Z,68.20
2022-12-23T21:50:06.405Z,67.81
2022-12-23T21:52:32.876Z,68.15
2022-12-23T21:54:59.785Z,68.42
2022-12-23T21:57:26.523Z,67.54
2022-12-23T21:59:54.553Z,67.74
2022-12-23T22:02:21.447Z,67.40
2022-12-23T22:04:48.028Z,67.65
2022-12-23T22:07:14.579Z,68.16
2022-12-23T22:09:41.145Z,67.73
2022-12-23T22:12:08.099Z,67.78
2022-12-23T22:14:34.943Z,66.68
2022-12-23T22:17:02.949Z,66.39
2022-12-23T22:19:29.685Z,67.04
2022-12-23T22:21:56.324Z,66.59
2022-12-23T22:24:22.801Z,67.22
2022-12-23T22:26:49.323Z,67.04
2022-12-23T22:29:18.384Z,67.11
2022-12-23T22:31:47.979Z,67.43
2022-12-23T22:34:18.235Z,68.22
2022-12-23T22:36:54.491Z,67.63
2022-12-23T22:39:24.217Z,67.43
2022-12-23T22:41:53.127Z,67.21
2022-12-23T22:44:20.307Z,68.33
2022-12-23T22:46:47.605Z,67.58
2022-12-23T22:49:17.762Z,67.55
2022-12-23T22:51:45.219Z,67.23
2022-12-23T22:54:11.847Z,66.97
2022-12-23T22:56:40.515Z,67.19
2022-12-23T22:59:07.215Z,67.34
2022-12-23T23:01:35.523Z,66.62
2022-12-23T23:04:03.968Z,66.26
2022-12-23T23:06:34.320Z,65.79
2022-12-23T23:09:01.720Z,65.44
2022-12-23T23:11:29.473Z,65.62
2022-12-23T23:13:56.934Z,65.30
2022-12-23T23:16:25.921Z,66.37
2022-12-23T23:18:54.203Z,66.00
2022-12-23T23:21:21.410Z,65.50
2022-12-23T23:23:50.131Z,65.74
2022-12-23T23:26:17.866Z,65.58
2022-12-23T23:28:52.036Z,65.19
2022-12-23T23:34:07.004Z,64.59
2022-12-23T23:36:33.949Z,64.95
2022-12-23T23:39:02.353Z,64.87
2022-12-23T23:45:20.267Z,64.33
2022-12-23T23:47:47.344Z,64.51
2022-12-23T23:50:14.195Z,63.72
2022-12-23T23:52:42.751Z,64.08
2022-12-23T23:55:11.457Z,63.92
2022-12-23T23:57:38.392Z,64.17
